createdAt,value
2023-01-06T00:01:27.545Z,54.50
2023-01-06T00:03:59.437Z,54.60
2023-01-06T00:06:30.919Z,54.60
2023-01-06T00:09:03.686Z,55.00
2023-01-06T00:11:32.918Z,54.60
2023-01-06T00:14:01.558Z,54.60
2023-01-06T00:16:30.423Z,54.50
2023-01-06T00:19:01.366Z,54.60
2023-01-06T00:21:30.315Z,54.60
2023-01-06T00:23:58.630Z,54.70
2023-01-06T00:26:27.231Z,54.80
2023-01-06T00:28:56.274Z,54.70
2023-01-06T00:31:26.651Z,54.60
2023-01-06T00:33:57.620Z,54.70
2023-01-06T00:36:27.411Z,54.80
2023-01-06T00:38:55.816Z,54.70
2023-01-06T00:41:41.722Z,54.70
2023-01-06T00:44:10.058Z,54.70
2023-01-06T00:46:38.541Z,54.90
2023-01-06T00:49:08.033Z,54.70
2023-01-06T00:51:40.430Z,54.70
2023-01-06T00:54:10.364Z,54.60
2023-01-06T00:56:39.581Z,54.90
2023-01-06T00:59:10.283Z,54.60
2023-01-06T01:01:39.599Z,54.60
2023-01-06T01:04:08.667Z,54.70
2023-01-06T01:06:39.372Z,54.80
2023-01-06T01:09:08.697Z,54.60
2023-01-06T01:11:54.927Z,54.60
2023-01-06T01:14:23.509Z,54.70
2023-01-06T01:16:52.200Z,54.70
2023-01-06T01:19:22.430Z,54.80
2023-01-06T01:21:52.333Z,54.80
2023-01-06T01:24:21.230Z,54.80
2023-01-06T01:26:51.198Z,54.80
2023-01-06T01:29:20.807Z,54.80
2023-01-06T01:31:51.675Z,54.70
2023-01-06T01:34:20.884Z,54.80
2023-01-06T01:36:53.992Z,54.80
2023-01-06T01:39:24.727Z,55.00
2023-01-06T01:41:54.567Z,54.90
2023-01-06T01:45:07.148Z,55.00
2023-01-06T01:47:47.047Z,55.20
2023-01-06T01:50:28.334Z,55.40
2023-01-06T01:53:08.499Z,56.00
2023-01-06T01:55:39.027Z,56.00
2023-01-06T01:58:13.815Z,56.20
2023-01-06T02:00:44.987Z,56.40
2023-01-06T02:03:15.263Z,54.80
2023-01-06T02:05:48.960Z,55.00
2023-01-06T02:08:32.231Z,55.10
2023-01-06T02:11:00.674Z,54.90
2023-01-06T02:13:29.207Z,55.20
2023-01-06T02:16:05.761Z,55.10
2023-01-06T02:18:49.674Z,55.10
2023-01-06T02:21:30.296Z,55.10
2023-01-06T02:24:53.768Z,55.20
2023-01-06T02:28:03.479Z,55.30
2023-01-06T02:31:05.234Z,55.20
2023-01-06T02:33:40.460Z,55.10
2023-01-06T02:36:21.743Z,55.30
2023-01-06T02:39:09.206Z,55.30
2023-01-06T02:41:44.514Z,55.20
2023-01-06T02:44:23.570Z,55.30
2023-01-06T02:47:11.043Z,55.40
2023-01-06T02:49:52.486Z,55.40
2023-01-06T02:52:31.341Z,55.40
2023-01-06T02:55:07.602Z,55.50
2023-01-06T02:57:43.892Z,55.50
2023-01-06T03:00:18.116Z,55.50
2023-01-06T03:02:54.495Z,55.60
2023-01-06T03:05:25.923Z,55.60
2023-01-06T03:07:56.311Z,55.70
2023-01-06T03:10:27.723Z,60.20
2023-01-06T03:13:01.604Z,59.70
2023-01-06T03:15:31.286Z,59.60
2023-01-06T03:17:59.802Z,59.70
2023-01-06T03:20:29.772Z,60.00
2023-01-06T03:22:58.265Z,60.10
2023-01-06T03:25:28.006Z,60.50
2023-01-06T03:27:58.229Z,60.80
2023-01-06T03:30:33.497Z,60.30
2023-01-06T03:33:08.454Z,60.50
2023-01-06T03:35:53.438Z,60.60
2023-01-06T03:38:40.200Z,60.50
2023-01-06T03:41:47.792Z,60.50
2023-01-06T03:44:26.540Z,60.30
2023-01-06T03:47:04.911Z,60.20
2023-01-06T03:49:36.857Z,60.80
2023-01-06T03:52:13.680Z,60.40
2023-01-06T03:54:51.030Z,60.10
2023-01-06T03:57:23.096Z,60.10
2023-01-06T03:59:58.280Z,60.10
2023-01-06T04:02:27.228Z,59.80
2023-01-06T04:05:09.203Z,59.80
2023-01-06T04:07:40.867Z,60.10
2023-01-06T04:10:12.986Z,60.40
2023-01-06T04:12:40.789Z,60.00
2023-01-06T04:15:16.208Z,60.00
2023-01-06T04:17:48.272Z,59.60
2023-01-06T04:20:21.611Z,54.90
2023-01-06T04:22:55.068Z,55.10
2023-01-06T04:25:25.056Z,55.40
2023-01-06T04:27:54.207Z,55.70
2023-01-06T04:30:22.887Z,55.90
2023-01-06T04:32:51.307Z,56.00
2023-01-06T04:35:20.409Z,56.10
2023-01-06T04:37:49.047Z,56.10
2023-01-06T04:40:18.866Z,56.10
2023-01-06T04:43:05.692Z,56.10
2023-01-06T04:45:35.075Z,56.20
2023-01-06T04:48:03.607Z,56.30
2023-01-06T04:50:31.895Z,56.30
2023-01-06T04:53:00.363Z,56.40
2023-01-06T04:55:30.511Z,56.50
2023-01-06T04:57:58.848Z,56.40
2023-01-06T05:00:27.152Z,56.40
2023-01-06T05:02:55.504Z,56.40
2023-01-06T05:05:23.892Z,56.50
2023-01-06T05:07:55.590Z,56.50
2023-01-06T05:10:23.990Z,56.40
2023-01-06T05:12:53.725Z,56.50
2023-01-06T05:15:22.307Z,56.50
2023-01-06T05:17:50.656Z,56.50
2023-01-06T05:20:19.123Z,56.50
2023-01-06T05:22:47.449Z,56.40
2023-01-06T05:25:15.944Z,54.30
2023-01-06T05:27:44.191Z,54.40
2023-01-06T05:30:14.958Z,54.40
2023-01-06T05:32:43.332Z,54.50
2023-01-06T05:35:11.762Z,54.50
2023-01-06T05:37:40.092Z,54.50
2023-01-06T05:40:10.286Z,54.60
2023-01-06T05:42:38.608Z,54.50
2023-01-06T05:45:08.687Z,54.60
2023-01-06T05:47:38.325Z,54.50
2023-01-06T05:50:07.996Z,55.10
2023-01-06T05:52:36.335Z,54.60
2023-01-06T05:55:05.533Z,54.60
2023-01-06T05:57:34.828Z,54.50
2023-01-06T06:00:03.621Z,54.60
2023-01-06T06:02:42.041Z,54.50
2023-01-06T06:05:10.689Z,54.60
2023-01-06T06:07:39.567Z,54.60
2023-01-06T06:10:09.756Z,54.60
2023-01-06T06:12:38.509Z,54.50
2023-01-06T06:15:08.194Z,54.60
2023-01-06T06:17:36.495Z,54.60
2023-01-06T06:20:07.854Z,54.50
2023-01-06T06:22:36.242Z,54.50
2023-01-06T06:25:04.798Z,54.60
2023-01-06T06:27:33.101Z,54.50
2023-01-06T06:30:01.450Z,54.60
2023-01-06T06:32:32.000Z,55.10
2023-01-06T06:35:00.520Z,55.10
2023-01-06T06:37:30.152Z,54.90
2023-01-06T06:39:58.503Z,54.80
2023-01-06T06:42:26.843Z,54.70
2023-01-06T06:44:55.161Z,54.70
2023-01-06T06:47:23.426Z,55.10
2023-01-06T06:49:52.225Z,55.50
2023-01-06T06:52:20.530Z,55.70
2023-01-06T06:54:50.261Z,55.70
2023-01-06T06:57:18.607Z,56.30
2023-01-06T06:59:46.857Z,58.90
2023-01-06T07:02:15.345Z,57.80
2023-01-06T07:04:43.784Z,58.00
2023-01-06T07:07:12.100Z,57.90
2023-01-06T07:09:40.470Z,58.70
2023-01-06T07:12:10.254Z,59.10
2023-01-06T07:14:38.578Z,58.80
2023-01-06T07:17:06.859Z,58.60
2023-01-06T07:19:35.202Z,58.30
2023-01-06T07:22:03.540Z,57.80
2023-01-06T07:24:31.787Z,57.90
2023-01-06T07:27:00.127Z,57.70
2023-01-06T07:29:29.790Z,57.70
2023-01-06T07:31:58.044Z,58.20
2023-01-06T07:34:26.403Z,57.40
2023-01-06T07:36:54.724Z,57.40
2023-01-06T07:39:23.074Z,57.40
2023-01-06T07:41:51.380Z,57.40
2023-01-06T07:44:20.637Z,57.30
2023-01-06T07:46:50.306Z,56.90
2023-01-06T07:49:18.583Z,57.00
2023-01-06T07:51:46.879Z,57.20
2023-01-06T07:54:15.145Z,57.10
2023-01-06T07:56:44.079Z,57.40
2023-01-06T07:59:12.651Z,57.30
2023-01-06T08:01:40.927Z,57.80
2023-01-06T08:04:10.597Z,57.20
2023-01-06T08:06:41.127Z,57.20
2023-01-06T08:09:09.638Z,57.20
2023-01-06T08:11:37.954Z,57.20
2023-01-06T08:14:06.290Z,57.40
2023-01-06T08:16:34.582Z,57.50
2023-01-06T08:19:05.013Z,57.40
2023-01-06T08:21:34.753Z,57.40
2023-01-06T08:24:03.104Z,57.50
2023-01-06T08:26:31.351Z,57.30
2023-01-06T08:28:59.669Z,57.40
2023-01-06T08:31:28.106Z,56.80
2023-01-06T08:33:56.557Z,57.30
2023-01-06T08:36:26.333Z,57.30
2023-01-06T08:38:56.059Z,57.40
2023-01-06T08:41:24.342Z,57.30
2023-01-06T08:43:52.766Z,57.30
2023-01-06T08:46:22.165Z,57.20
2023-01-06T08:48:50.757Z,57.20
2023-01-06T08:51:23.653Z,57.20
2023-01-06T08:53:53.142Z,57.00
2023-01-06T08:56:26.005Z,57.20
2023-01-06T08:58:55.601Z,57.00
2023-01-06T09:01:27.907Z,57.10
2023-01-06T09:03:56.699Z,57.00
2023-01-06T09:06:25.250Z,57.00
2023-01-06T09:08:53.808Z,57.00
2023-01-06T09:11:24.012Z,56.80
2023-01-06T09:13:52.970Z,56.90
2023-01-06T09:16:22.729Z,57.00
2023-01-06T09:18:51.967Z,57.00
2023-01-06T09:21:22.909Z,57.30
2023-01-06T09:23:51.675Z,57.20
2023-01-06T09:26:21.645Z,57.40
2023-01-06T09:28:52.549Z,57.50
2023-01-06T09:31:20.981Z,57.80
2023-01-06T09:33:49.371Z,57.80
2023-01-06T09:36:17.658Z,57.50
2023-01-06T09:38:46.022Z,57.10
2023-01-06T09:41:54.326Z,57.20
2023-01-06T09:44:30.993Z,57.10
2023-01-06T09:47:01.345Z,57.20
2023-01-06T09:49:37.353Z,56.60
2023-01-06T09:52:13.211Z,56.80
2023-01-06T09:54:49.212Z,57.00
2023-01-06T09:57:21.609Z,56.90
2023-01-06T09:59:57.757Z,56.80
2023-01-06T10:02:32.269Z,56.80
2023-01-06T10:05:00.858Z,57.10
2023-01-06T10:07:40.158Z,57.30
2023-01-06T10:10:25.253Z,57.40
2023-01-06T10:13:06.289Z,57.40
2023-01-06T10:15:48.473Z,57.40
2023-01-06T10:18:32.754Z,57.50
2023-01-06T10:21:14.204Z,57.60
2023-01-06T10:24:32.439Z,57.80
2023-01-06T10:27:12.564Z,58.30
2023-01-06T10:29:42.198Z,62.80
2023-01-06T10:32:22.577Z,61.80
2023-01-06T10:34:52.370Z,62.20
2023-01-06T10:37:25.891Z,62.00
2023-01-06T10:40:03.676Z,61.60
2023-01-06T10:43:00.183Z,62.00
2023-01-06T10:45:34.632Z,59.60
2023-01-06T10:48:07.133Z,60.10
2023-01-06T10:50:36.676Z,60.40
2023-01-06T10:53:05.567Z,56.50
2023-01-06T10:55:40.819Z,56.50
2023-01-06T10:58:20.593Z,56.40
2023-01-06T11:01:03.073Z,56.40
2023-01-06T11:03:34.537Z,56.50
2023-01-06T11:06:11.259Z,57.00
2023-01-06T11:08:40.699Z,57.60
2023-01-06T11:11:27.280Z,58.70
2023-01-06T11:14:00.013Z,59.70
2023-01-06T11:16:32.182Z,69.00
2023-01-06T11:19:06.231Z,70.50
2023-01-06T11:21:41.687Z,72.50
2023-01-06T11:24:21.969Z,72.00
2023-01-06T11:26:55.970Z,72.80
2023-01-06T11:29:31.742Z,74.00
2023-01-06T11:32:06.684Z,73.90
2023-01-06T11:34:36.462Z,73.70
2023-01-06T11:37:05.828Z,75.80
2023-01-06T11:39:37.891Z,74.40
2023-01-06T11:42:13.566Z,74.70
2023-01-06T11:44:43.922Z,72.80
2023-01-06T11:47:17.277Z,70.20
2023-01-06T11:49:51.756Z,70.10
2023-01-06T11:52:24.531Z,68.60
2023-01-06T11:55:02.977Z,67.80
2023-01-06T11:57:43.004Z,67.80
2023-01-06T12:00:39.439Z,67.30
2023-01-06T12:03:17.714Z,66.90
2023-01-06T12:05:55.643Z,67.10
2023-01-06T12:08:27.727Z,66.40
2023-01-06T12:11:06.521Z,66.20
2023-01-06T12:13:44.219Z,66.60
2023-01-06T12:16:19.926Z,66.50
2023-01-06T12:18:48.372Z,66.10
2023-01-06T12:21:26.955Z,66.20
2023-01-06T12:23:57.598Z,66.30
2023-01-06T12:26:26.755Z,65.80
2023-01-06T12:28:58.361Z,66.10
2023-01-06T12:31:32.947Z,65.60
2023-01-06T12:34:06.785Z,65.70
2023-01-06T12:36:44.650Z,65.50
2023-01-06T12:39:18.482Z,66.10
2023-01-06T12:41:53.432Z,66.90
2023-01-06T12:44:35.839Z,65.50
2023-01-06T12:47:16.218Z,64.40
2023-01-06T12:49:51.572Z,64.10
2023-01-06T12:52:29.430Z,63.80
2023-01-06T12:54:59.902Z,58.10
2023-01-06T12:57:52.378Z,58.50
2023-01-06T13:00:45.890Z,58.30
2023-01-06T13:03:55.489Z,58.40
2023-01-06T13:06:37.822Z,59.20
2023-01-06T13:09:30.463Z,59.50
2023-01-06T13:12:33.471Z,59.30
2023-01-06T13:15:10.529Z,59.10
2023-01-06T13:17:45.632Z,59.40
2023-01-06T13:20:22.508Z,59.50
2023-01-06T13:23:03.602Z,59.70
2023-01-06T13:25:59.853Z,60.30
2023-01-06T13:28:41.369Z,61.20
2023-01-06T13:31:40.988Z,61.30
2023-01-06T13:34:44.208Z,65.00
2023-01-06T13:37:24.680Z,65.50
2023-01-06T13:39:58.488Z,64.50
2023-01-06T13:42:38.465Z,64.50
2023-01-06T13:45:17.255Z,64.60
2023-01-06T13:47:47.716Z,64.90
2023-01-06T13:50:20.163Z,64.40
2023-01-06T13:52:49.121Z,64.60
2023-01-06T13:55:28.621Z,64.90
2023-01-06T13:58:18.760Z,57.00
2023-01-06T14:01:10.285Z,57.20
2023-01-06T14:03:39.870Z,57.20
2023-01-06T14:06:12.911Z,57.30
2023-01-06T14:08:50.159Z,57.30
2023-01-06T14:11:28.473Z,57.30
2023-01-06T14:14:00.206Z,57.40
2023-01-06T14:16:44.226Z,57.30
2023-01-06T14:19:18.913Z,57.40
2023-01-06T14:21:48.291Z,57.40
2023-01-06T14:24:26.864Z,56.90
2023-01-06T14:27:01.060Z,57.10
2023-01-06T14:30:04.845Z,57.40
2023-01-06T14:33:03.707Z,57.10
2023-01-06T14:35:42.160Z,56.80
2023-01-06T14:38:29.991Z,56.80
2023-01-06T14:41:02.727Z,56.80
2023-01-06T14:43:36.091Z,56.50
2023-01-06T14:46:15.976Z,56.90
2023-01-06T14:48:51.389Z,57.10
2023-01-06T14:51:22.925Z,56.70
2023-01-06T14:53:59.045Z,56.60
2023-01-06T14:56:30.277Z,56.60
2023-01-06T14:59:15.513Z,57.00
2023-01-06T15:01:54.430Z,57.20
2023-01-06T15:04:28.147Z,57.10
2023-01-06T15:07:05.708Z,57.10
2023-01-06T15:09:36.735Z,57.10
2023-01-06T15:12:05.397Z,56.80
2023-01-06T15:14:35.697Z,57.00
2023-01-06T15:17:07.549Z,56.90
2023-01-06T15:19:36.985Z,57.00
2023-01-06T15:22:09.685Z,57.10
2023-01-06T15:24:42.867Z,56.90
2023-01-06T15:27:15.246Z,57.10
2023-01-06T15:29:52.071Z,57.00
2023-01-06T15:32:23.093Z,57.00
2023-01-06T15:34:52.559Z,57.70
2023-01-06T15:37:24.868Z,57.70
2023-01-06T15:39:54.042Z,58.10
2023-01-06T15:42:26.014Z,58.10
2023-01-06T15:44:59.169Z,58.10
2023-01-06T15:47:36.334Z,61.20
2023-01-06T15:50:09.475Z,60.10
2023-01-06T15:52:40.970Z,60.20
2023-01-06T15:55:24.181Z,60.80
2023-01-06T15:57:57.144Z,59.50
2023-01-06T16:00:28.287Z,59.90
2023-01-06T16:02:59.219Z,67.30
2023-01-06T16:05:42.960Z,65.90
2023-01-06T16:08:25.376Z,65.70
2023-01-06T16:11:39.715Z,66.40
2023-01-06T16:14:27.542Z,65.50
2023-01-06T16:17:06.653Z,65.00
2023-01-06T16:19:40.340Z,65.10
2023-01-06T16:22:24.004Z,65.40
2023-01-06T16:24:53.272Z,64.90
2023-01-06T16:27:26.425Z,64.90
2023-01-06T16:30:26.829Z,64.20
2023-01-06T16:32:56.826Z,64.30
2023-01-06T16:35:28.589Z,64.30
2023-01-06T16:37:57.003Z,64.10
2023-01-06T16:40:28.133Z,64.10
2023-01-06T16:43:00.275Z,64.10
2023-01-06T16:45:35.556Z,63.40
2023-01-06T16:48:04.038Z,65.00
2023-01-06T16:50:40.779Z,71.70
2023-01-06T16:53:16.656Z,71.30
2023-01-06T16:55:45.685Z,69.80
2023-01-06T16:58:17.924Z,69.00
2023-01-06T17:00:51.625Z,69.00
2023-01-06T17:03:22.535Z,68.60
2023-01-06T17:05:53.055Z,67.80
2023-01-06T17:08:26.874Z,67.40
2023-01-06T17:10:55.289Z,60.50
2023-01-06T17:13:35.999Z,59.90
2023-01-06T17:16:15.679Z,59.70
2023-01-06T17:18:51.960Z,59.50
2023-01-06T17:21:24.658Z,59.80
2023-01-06T17:23:58.265Z,58.90
2023-01-06T17:26:28.038Z,58.70
2023-01-06T17:28:59.562Z,58.70
2023-01-06T17:31:33.368Z,58.50
2023-01-06T17:34:13.335Z,58.70
2023-01-06T17:36:45.579Z,58.60
2023-01-06T17:39:22.845Z,58.70
2023-01-06T17:42:05.307Z,58.40
2023-01-06T17:44:39.389Z,58.30
2023-01-06T17:47:28.171Z,58.00
2023-01-06T17:50:02.288Z,57.70
2023-01-06T17:52:37.581Z,57.70
2023-01-06T17:55:44.627Z,57.80
2023-01-06T17:58:16.710Z,58.10
2023-01-06T18:00:45.376Z,57.80
2023-01-06T18:03:19.096Z,59.50
2023-01-06T18:06:16.087Z,58.30
2023-01-06T18:08:46.831Z,58.40
2023-01-06T18:11:30.964Z,58.30
2023-01-06T18:14:16.033Z,57.80
2023-01-06T18:16:47.038Z,56.60
2023-01-06T18:19:35.820Z,55.30
2023-01-06T18:22:15.818Z,55.00
2023-01-06T18:24:46.929Z,54.70
2023-01-06T18:27:23.018Z,54.20
2023-01-06T18:29:52.422Z,54.30
2023-01-06T18:32:27.369Z,54.20
2023-01-06T18:34:58.084Z,54.40
2023-01-06T18:37:29.101Z,54.50
2023-01-06T18:40:02.289Z,54.50
2023-01-06T18:42:33.195Z,54.50
2023-01-06T18:45:24.932Z,54.50
2023-01-06T18:47:56.836Z,54.50
2023-01-06T18:50:33.487Z,54.50
2023-01-06T18:53:06.756Z,54.50
2023-01-06T18:55:40.058Z,54.60
2023-01-06T18:58:22.615Z,54.70
2023-01-06T19:00:55.457Z,54.90
2023-01-06T19:03:39.065Z,55.00
2023-01-06T19:06:39.334Z,55.10
2023-01-06T19:09:37.036Z,55.10
2023-01-06T19:12:20.929Z,55.10
2023-01-06T19:14:52.369Z,55.20
2023-01-06T19:17:27.048Z,55.80
2023-01-06T19:19:56.878Z,55.70
2023-01-06T19:22:27.534Z,55.60
2023-01-06T19:25:03.474Z,55.40
2023-01-06T19:27:50.546Z,55.50
2023-01-06T19:30:43.436Z,55.60
2023-01-06T19:33:29.629Z,55.70
2023-01-06T19:36:10.375Z,56.20
2023-01-06T19:38:41.113Z,56.40
2023-01-06T19:41:16.526Z,56.60
2023-01-06T19:43:46.218Z,56.70
2023-01-06T19:46:22.138Z,56.80
2023-01-06T19:48:50.947Z,56.80
2023-01-06T19:51:30.062Z,56.80
2023-01-06T19:54:01.325Z,56.90
2023-01-06T19:56:34.326Z,57.00
2023-01-06T19:59:11.005Z,57.00
2023-01-06T20:01:39.689Z,57.00
2023-01-06T20:04:19.430Z,57.10
2023-01-06T20:06:47.797Z,57.10
2023-01-06T20:09:16.196Z,57.20
2023-01-06T20:11:44.509Z,57.20
2023-01-06T20:14:14.362Z,56.10
2023-01-06T20:16:42.957Z,56.30
2023-01-06T20:19:11.344Z,56.40
2023-01-06T20:21:40.655Z,56.60
2023-01-06T20:24:09.816Z,56.70
2023-01-06T20:26:38.525Z,56.90
2023-01-06T20:29:07.832Z,56.90
2023-01-06T20:31:37.648Z,57.10
2023-01-06T20:34:06.457Z,57.20
2023-01-06T20:36:35.194Z,57.30
2023-01-06T20:39:03.627Z,57.40
2023-01-06T20:41:32.650Z,57.60
2023-01-06T20:44:01.924Z,57.60
2023-01-06T20:46:31.486Z,57.50
2023-01-06T20:49:01.289Z,57.80
2023-01-06T20:51:29.602Z,58.00
2023-01-06T20:53:57.932Z,58.00
2023-01-06T20:56:26.258Z,58.10
2023-01-06T20:58:54.515Z,58.60
2023-01-06T21:01:22.854Z,58.00
2023-01-06T21:03:51.260Z,58.00
2023-01-06T21:06:21.007Z,57.90
2023-01-06T21:08:50.149Z,57.90
2023-01-06T21:11:18.608Z,57.80
2023-01-06T21:13:47.450Z,57.70
2023-01-06T21:16:15.809Z,57.60
2023-01-06T21:18:44.130Z,57.50
2023-01-06T21:21:12.446Z,57.40
2023-01-06T21:23:42.226Z,57.30
2023-01-06T21:26:10.581Z,57.20
2023-01-06T21:28:38.937Z,57.10
2023-01-06T21:31:07.458Z,57.10
2023-01-06T21:33:35.837Z,57.10
2023-01-06T21:36:05.220Z,57.00
2023-01-06T21:38:34.656Z,57.10
2023-01-06T21:41:21.390Z,57.00
2023-01-06T21:43:49.731Z,57.00
2023-01-06T21:46:18.438Z,57.00
2023-01-06T21:48:46.853Z,57.10
2023-01-06T21:51:15.197Z,57.30
2023-01-06T21:53:43.695Z,57.50
2023-01-06T21:56:13.493Z,57.60
2023-01-06T21:58:41.860Z,57.70
2023-01-06T22:01:10.288Z,57.80
2023-01-06T22:03:38.642Z,58.00
2023-01-06T22:06:08.277Z,58.00
2023-01-06T22:08:36.688Z,58.10
2023-01-06T22:11:05.445Z,58.10
2023-01-06T22:13:35.822Z,58.40
2023-01-06T22:16:04.221Z,58.20
2023-01-06T22:18:34.191Z,58.20
2023-01-06T22:21:03.308Z,58.00
2023-01-06T22:23:33.720Z,57.80
2023-01-06T22:26:02.894Z,58.10
2023-01-06T22:28:32.047Z,58.50
2023-01-06T22:31:01.869Z,58.00
2023-01-06T22:33:30.935Z,57.70
2023-01-06T22:36:01.193Z,57.50
2023-01-06T22:38:29.539Z,57.70
2023-01-06T22:41:00.239Z,57.70
2023-01-06T22:43:29.716Z,57.70
2023-01-06T22:45:59.328Z,57.70
2023-01-06T22:48:29.300Z,57.70
2023-01-06T22:50:58.684Z,57.50
2023-01-06T22:53:28.695Z,57.50
2023-01-06T22:55:58.707Z,57.40
2023-01-06T22:58:28.469Z,57.40
2023-01-06T23:00:57.063Z,57.50
2023-01-06T23:03:27.353Z,57.40
2023-01-06T23:05:59.638Z,57.40
2023-01-06T23:08:29.141Z,57.40
2023-01-06T23:11:03.972Z,57.40
2023-01-06T23:13:34.572Z,57.30
2023-01-06T23:16:06.452Z,57.30
2023-01-06T23:18:36.923Z,57.20
2023-01-06T23:21:08.782Z,57.10
2023-01-06T23:23:39.355Z,57.10
2023-01-06T23:26:11.605Z,57.10
2023-01-06T23:28:40.442Z,57.00
2023-01-06T23:31:10.750Z,56.90
2023-01-06T23:33:40.349Z,56.70
2023-01-06T23:36:12.042Z,56.70
2023-01-06T23:38:40.626Z,56.80
2023-01-06T23:41:11.932Z,56.70
2023-01-06T23:43:41.308Z,56.70
2023-01-06T23:46:12.778Z,56.70
2023-01-06T23:48:43.233Z,56.50
2023-01-06T23:51:14.475Z,56.90
2023-01-06T23:53:43.850Z,59.30
2023-01-06T23:56:14.748Z,57.90
2023-01-06T23:58:46.690Z,57.50
